Share

Axtell, UT

Carbon County (KPUC) Elev 5955 ft | 39.61 °N, 110.75 °W | Change Station

Current weather conditions updated 18 minutes ago

Clear
Clear
44 °F
Feels Like 40 °F
N
8
Wind Variable Wind from NW
Sunrise 6:47 AM
Sunset 8:06 PM
Moon Waning Gibbous

Today is forecast to be Much Warmer than yesterday.

Pressure 29.98 in
Visibility 10.0 miles
Clouds Clear
Windchill 40 °F
Dew Point 14 °F
Humidity 30%
Rainfall 0.00 in
Snow Depth Not available.
UV 0 out of 16
Pollen 10.10 out of 12
Air Quality Not available.
Flu Activity Local Activity
METAR KPUC 170653Z AUTO 31007KT 10SM CLR 07/M10 A3003 RMK AO2 SLP150 T00671100 401560050

More Conditions Fewer Conditions

Pressure 29.98 in
Visibility 10.0 miles
Clouds Clear
Windchill 40 °F
Dew Point 14 °F
Humidity 30%
Rainfall 0.00 in
Snow Depth Not available.
UV 0 out of 16
Pollen 10.10 out of 12
Air Quality Not available.
Flu Activity Local Activity
METAR KPUC 170653Z AUTO 31007KT 10SM CLR 07/M10 A3003 RMK AO2 SLP150 T00671100 401560050

More Conditions Fewer Conditions

10-Day Forecast

Almanac

Astronomy

Apr. 17, 2014 Rise Set
Actual Time 6:47 AM MDT 8:06 PM MDT
Civil Twilight 6:19 AM MDT 8:34 PM MDT
Nautical Twilight 5:46 AM MDT 9:07 PM MDT
Astronomical Twilight 5:11 AM MDT 9:42 PM MDT
Moon 10:55 PM MDT 8:22 AM MDT
Length of Visible Light 14h 14m
Length of Day
13h 19m
Tomorrow will be 2m 23s longer.
Waning Gibbous, 95% of the Moon is Illuminated
Today
Waning Gibbous
Apr 22
Last Quarter
Apr 29
New
May 6
First Quarter
May 14
Full

Today's Extremes

State Highs State Lows

Community

  • Sunset over the Bay
    Sunset over the Bay
  • symphony in blue....
    symphony in blue....
  • Dawn Surprise
    Dawn Surprise
  • Yucca delight
    Yucca delight
  • Sunset inside of the Ocean
    Sunset inside of the Ocean

WunderPhotos

Upload Photos

1,701,875 photos uploaded!

WunderBlogs® & News

Nearby

Snow Depth

Station Depth Elevation
Beaver Dams 3 in 8000 ft
Pickle Keg 27 in 9600 ft
Dill's Camp 22 in 9200 ft
Buck Flat 41 in 9800 ft
Gooseberry R.S. 1 in 7920 ft

Coastal Water Temperatures

Place Temperature
No Stations Reporting

Earthquake Activity

City Distance Mag. Time & Date
No recent earthquake activity has been reported nearby.
Minimum magnitude displayed is 2.5.

Nearby Weather Stations

Station Location Temp. Windchill Dew Point Humidity Wind Precip. Elev Updated Type
RAWS SEVIER RESERVOIR UT, Scipio, UT 41 °F 41 °F 18 °F 39% SSW  at  3 mph 0.00 in / hr 5369 ft 11:51 PM MDT MADIS
MesoWest THISTLE FLAT , Manti, UT 32 °F 32 °F - - North  at  - 0.00 in / hr 8857 ft 11:00 PM MDT MADIS
MesoWest MT BALDY , Sterling, UT 29 °F 29 °F - - North  at  - 0.00 in / hr 9494 ft 11:00 PM MDT MADIS
HADS GRASSY LAKE NEAR EPHRAIM 15E UT, Ephraim, UT 27 °F 27 °F - - North  at  1 mph 0.00 in / hr 8879 ft 12:00 AM MDT MADIS

Show More Stations Show Fewer Stations

What do you think?

We're not finished. Please let us know what you like, what you don't like, and what you are still missing.